Kezdőlap
METAR-TAF:

METAR-TAF

Repülőterek :

Mendoza, Argentína

földrajzi szélesség: 32-50S, földrajzi hosszúság: 068-47W, magasság: 705 m

Jelenlegi meteorológiai megfigyelések

A jelentés 35 perccel ezelõtt készült, 15:00 UTC
Déli szél 3 kt
Hőmérséklet 14°C
Páratartalom 67%
Légköri nyomás 1010 hPa
Látótávolság 10 km, vagy több
felhőtlen 1500 m magasságban, és nincs gomolyfelhõ

METAR: SAME 261500Z 18003KT CAVOK 14/08 Q1010

Idő: 12:35 (15:35 UTC)

Előrejelzés

A jelentés 4 órával és 35 perccel ezelõtt készült, 11:00 UTC
Az előrejelzés 26-én 12 óra UTC és 27-én 12 óra UTC között érvényes
Délkeleti szél 5 kt
Látótávolság 10 km, vagy több
Kevés felhő 4000 lábon
Szórványos felhőzet 10000 lábon
26-én 12 óra UTC és 26-én 14 óra UTC között ideiglenes
Különbözõ irányokból fújó szél 3 kt
Látótávolság: 5000 m

TAF: SAME 261100Z 2612/2712 14005KT 9999 FEW040 SCT100 TX21/2620Z TN07/2710Z TEMPO 2612/2614 VRB03KT 5000 BRFU NSC

Meteorológiai megfigyelések és előrejelzések több, mint 4000 repülőtéren (METAR és TAF jelentéseket).

A térképen piros és sárga pontok jelzik az elérhető meteorológiai állomásokat.

Mozgassa az egeret a pont fölött, hogy megjelenjen az állomás neve.

Azután kattintson az időjárási megfigyelések és előrejelzések megtekintéséhez.

A térkép megváltoztatása: kattintson a fekete keresztel jelölt zöld gombra ráközelítéshez, a vonallal jelölt zöld gombra távolításhoz, vagy a zöld nyilakra a szomszédos térképek eléréséhez.


METAR-TAF: